createdAt,value
2018-07-13T00:00:26.362Z,61.10
2018-07-13T00:01:57.929Z,60.80
2018-07-13T00:03:29.497Z,63.80
2018-07-13T00:05:01.064Z,63.20
2018-07-13T00:06:32.636Z,53.60
2018-07-13T00:08:04.203Z,60.40
2018-07-13T00:09:35.771Z,61.10
2018-07-13T00:11:07.438Z,60.10
2018-07-13T00:12:38.906Z,64.10
2018-07-13T00:14:10.477Z,64.00
2018-07-13T00:15:42.044Z,68.30
2018-07-13T00:17:13.712Z,62.80
2018-07-13T00:18:45.182Z,75.10
2018-07-13T00:20:16.748Z,73.80
2018-07-13T00:21:48.316Z,73.40
2018-07-13T00:23:19.928Z,81.30
2018-07-13T00:24:51.456Z,77.50
2018-07-13T00:26:23.021Z,78.30
2018-07-13T00:27:54.592Z,94.30
2018-07-13T00:29:26.258Z,97.60
2018-07-13T00:30:57.725Z,97.70
2018-07-13T00:32:29.298Z,106.30
2018-07-13T00:34:00.866Z,108.50
2018-07-13T00:35:32.462Z,97.70
2018-07-13T00:37:03.999Z,99.70
2018-07-13T00:38:35.566Z,100.10
2018-07-13T00:40:07.133Z,100.80
2018-07-13T00:41:38.702Z,105.20
2018-07-13T00:43:10.270Z,105.10
2018-07-13T00:44:41.838Z,102.10
2018-07-13T00:46:13.406Z,100.20
2018-07-13T00:47:45.324Z,91.90
2018-07-13T00:49:16.549Z,87.60
2018-07-13T00:50:48.110Z,94.70
2018-07-13T00:52:19.679Z,93.60
2018-07-13T00:53:51.346Z,87.10
2018-07-13T00:55:22.815Z,83.60
2018-07-13T00:56:54.383Z,84.80
2018-07-13T00:58:25.951Z,84.50
2018-07-13T00:59:57.524Z,68.30
2018-07-13T01:01:29.088Z,63.80
2018-07-13T01:03:00.656Z,64.80
2018-07-13T01:04:32.223Z,62.60
2018-07-13T01:06:03.891Z,66.50
2018-07-13T01:07:35.359Z,70.90
2018-07-13T01:09:06.927Z,67.60
2018-07-13T01:10:38.495Z,65.10
2018-07-13T01:12:10.065Z,66.50
2018-07-13T01:13:41.631Z,66.50
2018-07-13T01:15:13.211Z,67.80
2018-07-13T01:16:44.767Z,62.10
2018-07-13T01:18:16.435Z,61.90
2018-07-13T01:19:47.904Z,62.50
2018-07-13T01:21:19.520Z,59.40
2018-07-13T01:22:51.040Z,62.70
2018-07-13T01:24:22.710Z,68.90
2018-07-13T01:25:54.175Z,56.10
2018-07-13T01:27:25.744Z,59.10
2018-07-13T01:28:57.312Z,63.40
2018-07-13T01:30:28.879Z,55.80
2018-07-13T01:32:00.447Z,58.60
2018-07-13T01:33:32.015Z,53.10
2018-07-13T01:35:03.582Z,56.00
2018-07-13T01:36:35.150Z,55.80
2018-07-13T01:38:06.734Z,59.10
2018-07-13T01:39:38.286Z,51.90
2018-07-13T01:41:09.854Z,54.90
2018-07-13T01:42:41.523Z,53.10
2018-07-13T01:44:12.989Z,55.80
2018-07-13T01:45:44.556Z,51.30
2018-07-13T01:47:16.124Z,51.40
2018-07-13T01:48:47.793Z,56.20
2018-07-13T01:50:19.259Z,50.90
2018-07-13T01:51:50.827Z,54.50
2018-07-13T01:53:22.394Z,50.20
2018-07-13T01:54:57.263Z,52.80
2018-07-13T01:56:30.539Z,49.40
2018-07-13T01:58:02.043Z,47.60
2018-07-13T01:59:31.686Z,51.30
2018-07-13T02:01:05.336Z,50.40
2018-07-13T02:02:36.003Z,51.50
2018-07-13T02:04:06.595Z,51.00
2018-07-13T02:05:34.938Z,54.90
2018-07-13T02:07:06.502Z,52.80
2018-07-13T02:08:38.069Z,53.30
2018-07-13T02:10:09.637Z,57.60
2018-07-13T02:11:41.206Z,60.70
2018-07-13T02:13:12.774Z,61.60
2018-07-13T02:14:44.339Z,65.00
2018-07-13T02:16:15.907Z,70.10
2018-07-13T02:17:47.519Z,73.70
2018-07-13T02:19:19.392Z,78.10
2018-07-13T02:20:50.609Z,87.50
2018-07-13T02:22:22.177Z,87.90
2018-07-13T02:23:53.744Z,92.30
2018-07-13T02:25:25.411Z,98.70
2018-07-13T02:26:56.878Z,97.20
2018-07-13T02:28:28.445Z,92.20
2018-07-13T02:30:00.017Z,90.50
2018-07-13T02:31:31.584Z,96.10
2018-07-13T02:33:03.147Z,99.70
2018-07-13T02:34:34.713Z,96.10
2018-07-13T02:36:06.281Z,107.40
2018-07-13T02:37:37.947Z,101.20
2018-07-13T02:39:09.515Z,102.50
2018-07-13T02:40:40.989Z,102.70
2018-07-13T02:42:12.556Z,103.00
2018-07-13T02:43:44.116Z,106.50
2018-07-13T02:45:15.682Z,101.50
2018-07-13T02:46:47.249Z,103.30
2018-07-13T02:48:18.816Z,108.40
2018-07-13T02:49:50.487Z,108.50
2018-07-13T02:51:21.949Z,100.90
2018-07-13T02:52:53.517Z,107.40
2018-07-13T02:54:25.088Z,108.40
2018-07-13T02:55:56.749Z,112.00
2018-07-13T02:57:28.216Z,119.10
2018-07-13T02:58:59.786Z,113.90
2018-07-13T03:00:31.349Z,117.50
2018-07-13T03:02:02.916Z,117.60
2018-07-13T03:03:34.483Z,127.70
2018-07-13T03:05:06.050Z,121.90
2018-07-13T03:06:37.616Z,121.10
2018-07-13T03:08:09.183Z,121.10
2018-07-13T03:09:40.749Z,129.50
2018-07-13T03:11:12.316Z,127.90
2018-07-13T03:12:43.882Z,129.90
2018-07-13T03:14:15.800Z,132.20
2018-07-13T03:15:47.017Z,123.80
2018-07-13T03:17:18.583Z,127.90
2018-07-13T03:18:50.151Z,138.20
2018-07-13T03:20:21.716Z,143.30
2018-07-13T03:21:53.282Z,142.10
2018-07-13T03:23:24.850Z,142.30
2018-07-13T03:24:56.416Z,143.90
2018-07-13T03:26:27.982Z,142.70
2018-07-13T03:27:59.547Z,139.30
2018-07-13T03:29:31.114Z,145.70
2018-07-13T03:31:02.681Z,135.80
2018-07-13T03:32:34.347Z,154.20
2018-07-13T03:34:05.814Z,145.90
2018-07-13T03:35:37.380Z,142.60
2018-07-13T03:37:08.946Z,153.00
2018-07-13T03:38:40.513Z,155.20
2018-07-13T03:40:12.079Z,145.50
2018-07-13T03:41:43.645Z,152.50
2018-07-13T03:43:15.211Z,143.30
2018-07-13T03:44:46.778Z,147.20
2018-07-13T03:46:18.345Z,146.50
2018-07-13T03:47:49.911Z,139.60
2018-07-13T03:49:21.476Z,144.60
2018-07-13T03:50:53.294Z,129.60
2018-07-13T03:52:24.609Z,141.90
2018-07-13T03:53:56.176Z,145.80
2018-07-13T03:55:27.742Z,138.60
2018-07-13T03:56:59.311Z,144.80
2018-07-13T03:58:30.875Z,135.70
2018-07-13T04:00:02.442Z,136.00
2018-07-13T04:01:34.008Z,150.60
2018-07-13T04:03:05.574Z,144.20
2018-07-13T04:04:37.140Z,148.50
2018-07-13T04:06:08.707Z,137.50
2018-07-13T04:07:40.274Z,149.20
2018-07-13T04:09:11.938Z,156.50
2018-07-13T04:10:43.405Z,160.80
2018-07-13T04:12:14.971Z,171.10
2018-07-13T04:13:46.537Z,166.00
2018-07-13T04:15:18.103Z,151.70
2018-07-13T04:16:49.671Z,168.40
2018-07-13T04:18:21.236Z,150.70
2018-07-13T04:19:52.802Z,162.30
2018-07-13T04:21:24.468Z,148.40
2018-07-13T04:22:55.934Z,160.60
2018-07-13T04:24:27.511Z,152.30
2018-07-13T04:25:59.066Z,159.70
2018-07-13T04:27:30.733Z,140.70
2018-07-13T04:29:02.198Z,141.50
2018-07-13T04:30:33.765Z,151.80
2018-07-13T04:32:05.330Z,141.80
2018-07-13T04:33:36.898Z,142.80
2018-07-13T04:35:08.463Z,159.90
2018-07-13T04:36:40.037Z,164.30
2018-07-13T04:38:11.595Z,178.10
2018-07-13T04:39:43.161Z,150.70
2018-07-13T04:41:14.727Z,150.10
2018-07-13T04:42:46.292Z,154.30
2018-07-13T04:44:17.857Z,168.20
2018-07-13T04:45:49.724Z,159.10
2018-07-13T04:47:20.989Z,166.20
2018-07-13T04:48:52.556Z,170.90
2018-07-13T04:50:24.124Z,183.70
2018-07-13T04:51:55.687Z,162.20
2018-07-13T04:53:27.252Z,192.00
2018-07-13T04:54:58.817Z,170.30
2018-07-13T04:56:30.385Z,154.10
2018-07-13T04:58:01.950Z,170.90
2018-07-13T04:59:33.515Z,167.40
2018-07-13T05:01:05.083Z,147.30
2018-07-13T05:02:36.647Z,170.50
2018-07-13T05:04:08.413Z,192.80
2018-07-13T05:05:39.779Z,202.20
2018-07-13T05:07:11.344Z,227.00
2018-07-13T05:08:42.909Z,199.70
2018-07-13T05:10:14.475Z,160.20
2018-07-13T05:11:46.041Z,162.60
2018-07-13T05:13:17.607Z,156.70
2018-07-13T05:14:49.172Z,153.80
2018-07-13T05:16:20.738Z,169.20
2018-07-13T05:17:52.303Z,177.50
2018-07-13T05:19:23.869Z,173.90
2018-07-13T05:20:55.436Z,180.40
2018-07-13T05:22:27.217Z,197.70
2018-07-13T05:23:58.567Z,347.50
2018-07-13T05:25:30.135Z,362.70
2018-07-13T05:27:01.697Z,302.80
2018-07-13T05:28:33.263Z,297.40
2018-07-13T05:30:04.831Z,266.20
2018-07-13T05:31:36.396Z,266.10
2018-07-13T05:33:07.961Z,237.50
2018-07-13T05:34:39.528Z,233.90
2018-07-13T05:36:11.094Z,230.70
2018-07-13T05:37:42.660Z,212.40
2018-07-13T05:39:14.228Z,213.10
2018-07-13T05:40:45.895Z,220.10
2018-07-13T05:42:17.359Z,216.70
2018-07-13T05:43:48.925Z,218.60
2018-07-13T05:45:20.498Z,215.20
2018-07-13T05:46:52.058Z,214.40
2018-07-13T05:48:23.624Z,197.50
2018-07-13T05:49:55.191Z,192.00
2018-07-13T05:51:26.757Z,211.00
2018-07-13T05:52:58.322Z,202.00
2018-07-13T05:54:29.889Z,199.50
2018-07-13T05:56:01.456Z,200.80
2018-07-13T05:57:33.023Z,190.70
2018-07-13T05:59:04.789Z,208.90
2018-07-13T06:00:36.156Z,200.30
2018-07-13T06:02:07.722Z,203.00
2018-07-13T06:03:39.318Z,197.70
2018-07-13T06:05:10.855Z,196.60
2018-07-13T06:06:42.421Z,195.60
2018-07-13T06:08:13.987Z,187.90
2018-07-13T06:09:45.586Z,192.40
2018-07-13T06:11:17.122Z,194.80
2018-07-13T06:12:48.687Z,185.20
2018-07-13T06:14:20.253Z,197.90
2018-07-13T06:15:51.821Z,191.50
2018-07-13T06:17:23.487Z,194.70
2018-07-13T06:18:54.953Z,189.50
2018-07-13T06:20:26.523Z,185.10
2018-07-13T06:21:58.086Z,201.30
2018-07-13T06:23:29.652Z,189.60
2018-07-13T06:25:01.620Z,191.90
2018-07-13T06:26:32.786Z,186.00
2018-07-13T06:28:04.352Z,179.60
2018-07-13T06:29:36.023Z,188.40
2018-07-13T06:31:07.487Z,186.10
2018-07-13T06:32:39.052Z,198.80
2018-07-13T06:34:10.618Z,180.80
2018-07-13T06:35:42.285Z,182.80
2018-07-13T06:37:13.752Z,182.50
2018-07-13T06:38:45.318Z,171.40
2018-07-13T06:40:16.884Z,178.80
2018-07-13T06:41:48.451Z,177.40
2018-07-13T06:43:20.017Z,182.80
2018-07-13T06:44:51.654Z,160.00
2018-07-13T06:46:23.151Z,168.10
2018-07-13T06:47:54.717Z,163.00
2018-07-13T06:49:26.286Z,163.40
2018-07-13T06:50:57.850Z,163.00
2018-07-13T06:52:29.417Z,170.80
2018-07-13T06:54:01.183Z,169.30
2018-07-13T06:55:32.549Z,165.50
2018-07-13T06:57:04.116Z,159.40
2018-07-13T06:58:35.684Z,174.40
2018-07-13T07:00:07.249Z,169.60
2018-07-13T07:01:38.815Z,174.40
2018-07-13T07:03:10.382Z,161.50
2018-07-13T07:04:41.949Z,167.60
2018-07-13T07:06:13.552Z,176.90
2018-07-13T07:07:45.122Z,169.40
2018-07-13T07:09:16.649Z,187.60
2018-07-13T07:10:48.213Z,178.30
2018-07-13T07:12:19.880Z,165.60
2018-07-13T07:13:51.346Z,178.70
2018-07-13T07:15:22.912Z,176.30
2018-07-13T07:16:54.478Z,176.60
2018-07-13T07:18:26.047Z,180.10
2018-07-13T07:19:57.611Z,182.50
2018-07-13T07:21:29.177Z,185.50
2018-07-13T07:23:00.744Z,185.20
2018-07-13T07:24:32.388Z,196.90
2018-07-13T07:26:03.877Z,176.60
2018-07-13T07:27:35.443Z,192.60
2018-07-13T07:29:07.010Z,188.70
2018-07-13T07:30:38.734Z,194.10
2018-07-13T07:32:10.143Z,186.00
2018-07-13T07:33:41.709Z,181.40
2018-07-13T07:35:13.275Z,189.30
2018-07-13T07:36:44.842Z,191.50
2018-07-13T07:38:16.408Z,177.20
2018-07-13T07:39:47.975Z,198.30
2018-07-13T07:41:19.540Z,208.50
2018-07-13T07:42:51.107Z,204.30
2018-07-13T07:44:22.673Z,195.20
2018-07-13T07:45:54.239Z,193.10
2018-07-13T07:47:25.807Z,156.70
2018-07-13T07:48:57.473Z,161.20
2018-07-13T07:50:28.940Z,170.90
2018-07-13T07:52:00.506Z,159.80
2018-07-13T07:53:32.073Z,172.00
2018-07-13T07:55:03.739Z,158.20
2018-07-13T07:56:35.210Z,152.50
2018-07-13T07:58:06.772Z,158.40
2018-07-13T07:59:38.338Z,167.00
2018-07-13T08:01:09.905Z,171.80
2018-07-13T08:02:41.471Z,182.20
2018-07-13T08:04:13.037Z,179.20
2018-07-13T08:05:44.625Z,178.90
2018-07-13T08:07:16.769Z,176.90
2018-07-13T08:08:47.737Z,172.30
2018-07-13T08:10:19.303Z,159.10
2018-07-13T08:11:50.869Z,175.00
2018-07-13T08:13:22.437Z,181.70
2018-07-13T08:14:54.002Z,175.70
2018-07-13T08:16:25.567Z,187.40
2018-07-13T08:17:57.135Z,189.80
2018-07-13T08:19:28.714Z,179.70
2018-07-13T08:21:00.267Z,189.80
2018-07-13T08:22:31.832Z,191.40
2018-07-13T08:24:03.397Z,200.50
2018-07-13T08:25:35.214Z,189.90
2018-07-13T08:27:06.530Z,183.60
2018-07-13T08:28:38.096Z,186.20
2018-07-13T08:30:09.661Z,180.20
2018-07-13T08:31:41.231Z,177.90
2018-07-13T08:33:12.794Z,178.80
2018-07-13T08:34:44.360Z,174.20
2018-07-13T08:36:15.930Z,172.00
2018-07-13T08:37:47.497Z,176.70
2018-07-13T08:39:19.059Z,182.70
2018-07-13T08:40:50.624Z,179.60
2018-07-13T08:42:22.191Z,172.90
2018-07-13T08:43:53.867Z,180.90
2018-07-13T08:45:25.324Z,183.20
2018-07-13T08:46:56.889Z,170.10
2018-07-13T08:48:28.455Z,177.30
2018-07-13T08:50:00.022Z,167.10
2018-07-13T08:51:31.592Z,156.30
2018-07-13T08:53:03.154Z,160.70
2018-07-13T08:54:34.720Z,169.60
2018-07-13T08:56:06.415Z,166.00
2018-07-13T08:57:37.853Z,156.10
2018-07-13T08:59:09.419Z,167.00
2018-07-13T09:00:40.985Z,167.00
2018-07-13T09:02:12.652Z,163.10
2018-07-13T09:03:44.118Z,163.70
2018-07-13T09:05:15.685Z,156.30
2018-07-13T09:06:47.250Z,157.20
2018-07-13T09:08:18.817Z,157.40
2018-07-13T09:09:50.383Z,159.00
2018-07-13T09:11:21.949Z,164.70
2018-07-13T09:12:53.569Z,156.70
2018-07-13T09:14:25.084Z,158.50
2018-07-13T09:15:56.650Z,150.40
2018-07-13T09:17:28.217Z,154.70
2018-07-13T09:18:59.782Z,161.00
2018-07-13T09:20:31.449Z,152.10
2018-07-13T09:22:02.915Z,164.40
2018-07-13T09:23:34.482Z,167.30
2018-07-13T09:25:06.050Z,151.00
2018-07-13T09:26:37.866Z,156.90
2018-07-13T09:28:09.183Z,145.80
2018-07-13T09:29:40.750Z,147.30
2018-07-13T09:31:12.324Z,142.80
2018-07-13T09:32:43.883Z,141.50
2018-07-13T09:34:15.450Z,137.10
2018-07-13T09:35:47.019Z,139.80
2018-07-13T09:37:18.583Z,127.50
2018-07-13T09:38:50.349Z,133.30
2018-07-13T09:40:21.716Z,135.60
2018-07-13T09:41:53.283Z,128.80
2018-07-13T09:43:24.849Z,123.80
2018-07-13T09:44:56.537Z,132.80
2018-07-13T09:46:28.123Z,122.20
2018-07-13T09:47:59.757Z,120.20
2018-07-13T09:49:31.114Z,126.40
2018-07-13T09:51:02.690Z,130.00
2018-07-13T09:52:34.247Z,123.90
2018-07-13T09:54:06.131Z,125.70
2018-07-13T09:55:37.381Z,128.40
2018-07-13T09:57:09.202Z,133.10
2018-07-13T09:58:40.613Z,117.00
2018-07-13T10:00:12.080Z,118.40
2018-07-13T10:01:43.789Z,116.30
2018-07-13T10:03:15.212Z,113.70
2018-07-13T10:04:46.780Z,123.00
2018-07-13T10:06:18.346Z,118.70
2018-07-13T10:07:50.172Z,116.10
2018-07-13T10:09:21.479Z,118.00
2018-07-13T10:10:53.046Z,109.00
2018-07-13T10:12:24.818Z,103.20
2018-07-13T10:13:56.179Z,102.70
2018-07-13T10:15:27.930Z,100.90
2018-07-13T10:16:59.312Z,102.50
2018-07-13T10:18:31.122Z,100.40
2018-07-13T10:20:02.458Z,93.70
2018-07-13T10:21:34.215Z,94.40
2018-07-13T10:23:05.579Z,89.00
2018-07-13T10:24:37.281Z,90.10
2018-07-13T10:26:08.714Z,93.10
2018-07-13T10:27:40.380Z,85.90
2018-07-13T10:29:11.905Z,80.80
2018-07-13T10:30:43.615Z,88.00
2018-07-13T10:32:14.979Z,80.20
2018-07-13T10:33:46.779Z,68.80
2018-07-13T10:35:18.452Z,69.00
2018-07-13T10:36:49.731Z,66.70
2018-07-13T10:38:21.246Z,60.40
2018-07-13T10:39:52.815Z,63.20
2018-07-13T10:42:56.154Z,64.80
2018-07-13T10:44:27.517Z,61.80
2018-07-13T10:45:59.334Z,56.70
2018-07-13T10:47:30.650Z,55.60
2018-07-13T10:49:02.215Z,56.70
2018-07-13T10:50:34.087Z,55.90
2018-07-13T10:52:05.449Z,53.50
2018-07-13T10:53:36.917Z,59.50
2018-07-13T10:55:08.722Z,53.00
2018-07-13T10:56:40.270Z,50.30
2018-07-13T10:59:43.326Z,53.90
2018-07-13T11:01:14.754Z,48.80
2018-07-13T11:04:17.895Z,53.80
2018-07-13T11:05:49.464Z,50.70
2018-07-13T11:07:21.227Z,45.20
2018-07-13T11:08:52.602Z,48.60
2018-07-13T11:10:24.466Z,44.10
2018-07-13T11:11:55.881Z,41.60
2018-07-13T11:13:27.507Z,44.00
2018-07-13T11:14:59.376Z,40.60
2018-07-13T11:16:30.642Z,42.00
2018-07-13T11:18:02.009Z,44.00
2018-07-13T11:19:33.873Z,43.30
2018-07-13T11:21:05.150Z,37.20
2018-07-13T11:24:08.528Z,40.60
2018-07-13T11:25:39.863Z,44.30
2018-07-13T11:27:11.438Z,46.10
2018-07-13T11:28:43.205Z,47.90
2018-07-13T11:30:15.027Z,51.40
2018-07-13T11:31:46.447Z,46.50
2018-07-13T11:33:17.752Z,45.40
2018-07-13T11:36:20.911Z,50.30
2018-07-13T11:37:52.431Z,46.30
2018-07-13T11:39:24.001Z,47.90
2018-07-13T11:40:55.625Z,45.20
2018-07-13T11:42:27.158Z,46.20
2018-07-13T11:43:58.841Z,47.40
2018-07-13T11:45:30.815Z,53.90
2018-07-13T11:47:02.384Z,49.20
2018-07-13T11:48:33.731Z,56.30
2018-07-13T11:50:05.059Z,54.30
2018-07-13T11:51:36.581Z,56.60
2018-07-13T11:54:39.726Z,55.70
2018-07-13T11:56:11.297Z,59.40
2018-07-13T11:57:42.869Z,62.90
2018-07-13T11:59:14.445Z,62.50
2018-07-13T12:00:46.318Z,60.10
2018-07-13T12:02:17.588Z,62.50
2018-07-13T12:03:49.163Z,58.80
2018-07-13T12:05:21.047Z,64.20
2018-07-13T12:06:52.411Z,57.60
2018-07-13T12:08:24.186Z,61.60
2018-07-13T12:09:55.455Z,61.50
2018-07-13T12:11:27.030Z,62.70
2018-07-13T12:12:58.603Z,61.00
2018-07-13T12:16:01.753Z,61.90
2018-07-13T12:17:33.412Z,66.60
2018-07-13T12:19:04.902Z,70.50
2018-07-13T12:20:36.475Z,68.00
2018-07-13T12:22:08.050Z,61.50
2018-07-13T12:23:39.626Z,68.80
2018-07-13T12:25:11.300Z,66.80
2018-07-13T12:26:42.774Z,67.20
2018-07-13T12:28:14.350Z,64.90
2018-07-13T12:29:46.449Z,65.90
2018-07-13T12:31:17.503Z,69.00
2018-07-13T12:32:49.077Z,65.10
2018-07-13T12:34:20.679Z,67.40
2018-07-13T12:35:52.537Z,65.80
2018-07-13T12:37:23.805Z,70.50
2018-07-13T12:38:55.381Z,68.40
2018-07-13T12:40:26.964Z,70.80
2018-07-13T12:45:01.787Z,76.00
2018-07-13T12:46:33.264Z,74.80
2018-07-13T12:49:36.417Z,72.10
2018-07-13T12:51:07.994Z,73.50
2018-07-13T12:52:39.571Z,75.40
2018-07-13T12:54:11.256Z,72.20
2018-07-13T12:55:42.724Z,74.10
2018-07-13T12:57:14.504Z,75.30
2018-07-13T12:58:46.182Z,72.70
2018-07-13T13:00:17.456Z,75.50
2018-07-13T13:01:49.034Z,71.40
2018-07-13T13:06:23.982Z,72.50
2018-07-13T13:07:55.346Z,76.70
2018-07-13T13:09:27.127Z,73.90
2018-07-13T13:12:30.385Z,77.60
2018-07-13T13:14:01.659Z,77.90
2018-07-13T13:15:33.537Z,78.70
2018-07-13T13:17:04.862Z,84.00
2018-07-13T13:20:07.973Z,80.00
2018-07-13T13:21:39.565Z,80.20
2018-07-13T13:23:11.134Z,78.80
2018-07-13T13:26:14.387Z,79.60
2018-07-13T13:27:46.384Z,76.30
2018-07-13T13:29:17.507Z,82.00
2018-07-13T13:30:49.021Z,87.30
2018-07-13T13:35:23.756Z,85.20
2018-07-13T13:38:26.915Z,90.90
2018-07-13T13:41:30.477Z,90.30
2018-07-13T13:43:01.655Z,91.40
2018-07-13T13:44:33.234Z,90.80
2018-07-13T13:46:04.812Z,92.80
2018-07-13T13:47:36.594Z,94.70
2018-07-13T13:49:07.970Z,94.40
2018-07-13T13:50:39.550Z,87.80
2018-07-13T13:52:11.172Z,90.40
2018-07-13T13:55:14.288Z,86.70
2018-07-13T13:56:46.171Z,76.30
2018-07-13T13:58:17.446Z,80.90
2018-07-13T13:59:49.034Z,84.50
2018-07-13T14:01:20.708Z,79.40
2018-07-13T14:04:23.791Z,80.20
2018-07-13T14:05:55.345Z,78.20
2018-07-13T14:07:26.925Z,69.50
2018-07-13T14:10:30.812Z,65.10
2018-07-13T14:12:01.752Z,65.10
2018-07-13T14:13:33.246Z,58.40
2018-07-13T14:15:04.827Z,58.70
2018-07-13T14:16:36.931Z,64.30
2018-07-13T14:18:07.988Z,57.90
2018-07-13T14:19:39.669Z,58.60
2018-07-13T14:21:11.761Z,56.60
2018-07-13T14:22:42.732Z,55.70
2018-07-13T14:24:14.312Z,56.40
2018-07-13T14:25:46.196Z,57.50
2018-07-13T14:27:17.475Z,56.70
2018-07-13T14:28:49.071Z,55.10
2018-07-13T14:30:20.636Z,53.10
2018-07-13T14:33:23.807Z,48.20
2018-07-13T14:36:26.962Z,46.30
2018-07-13T14:37:59.079Z,44.90
2018-07-13T14:41:01.810Z,44.20
2018-07-13T14:42:33.491Z,47.50
2018-07-13T14:44:04.919Z,46.40
2018-07-13T14:47:09.069Z,42.60
2018-07-13T14:48:39.618Z,47.00
2018-07-13T14:50:11.199Z,42.60
2018-07-13T14:51:42.782Z,43.30
2018-07-13T14:53:14.363Z,40.70
2018-07-13T14:54:45.945Z,39.60
2018-07-13T14:56:17.527Z,44.40
2018-07-13T14:57:50.240Z,39.90
2018-07-13T14:59:20.929Z,40.90
2018-07-13T15:00:52.579Z,41.40
2018-07-13T15:02:24.162Z,36.90
2018-07-13T15:05:27.022Z,34.10
2018-07-13T15:06:58.620Z,36.50
2018-07-13T15:08:30.188Z,31.10
2018-07-13T15:10:02.046Z,27.80
2018-07-13T15:13:05.070Z,26.20
2018-07-13T15:16:08.708Z,26.30
2018-07-13T15:17:39.687Z,25.90
2018-07-13T15:19:11.367Z,18.70
2018-07-13T15:20:43.579Z,19.20
2018-07-13T15:23:46.539Z,15.20
2018-07-13T15:25:17.598Z,14.40
2018-07-13T15:26:49.386Z,13.30
2018-07-13T15:28:20.764Z,15.40
2018-07-13T15:29:52.550Z,14.40
2018-07-13T15:32:55.512Z,17.60
2018-07-13T15:34:27.095Z,15.60
2018-07-13T15:35:58.678Z,17.20
2018-07-13T15:37:30.785Z,16.90
2018-07-13T15:39:02.249Z,16.80
2018-07-13T15:40:33.427Z,16.60
2018-07-13T15:42:05.213Z,17.90
2018-07-13T15:43:37.116Z,17.50
2018-07-13T15:45:08.177Z,16.80
2018-07-13T15:46:39.761Z,17.60
2018-07-13T15:49:43.449Z,17.40
2018-07-13T15:51:14.733Z,17.50
2018-07-13T15:52:46.095Z,17.50
2018-07-13T15:55:49.259Z,18.60
2018-07-13T15:57:20.943Z,19.60
2018-07-13T15:58:52.720Z,17.00
2018-07-13T16:00:24.212Z,17.00
2018-07-13T16:01:55.592Z,14.60
2018-07-13T16:03:27.175Z,16.30
2018-07-13T16:04:58.760Z,15.60
2018-07-13T16:12:37.283Z,15.20
2018-07-13T16:14:08.291Z,14.80
2018-07-13T16:15:39.851Z,17.90
2018-07-13T16:17:11.528Z,15.10
2018-07-13T16:20:17.229Z,17.20
2018-07-13T16:21:48.421Z,17.40
2018-07-13T16:23:20.423Z,15.60
2018-07-13T16:24:50.067Z,17.00
2018-07-13T16:26:22.139Z,16.40
2018-07-13T16:27:54.184Z,20.60
2018-07-13T16:29:25.128Z,15.30
2018-07-13T16:30:55.954Z,17.30
2018-07-13T16:33:59.404Z,18.30
2018-07-13T16:38:34.270Z,19.20
2018-07-13T16:40:05.382Z,18.20
2018-07-13T16:44:40.665Z,17.90
2018-07-13T16:46:11.718Z,17.60
2018-07-13T16:47:43.622Z,18.80
2018-07-13T16:49:15.189Z,18.20
2018-07-13T16:50:46.458Z,19.70
2018-07-13T16:52:17.849Z,22.10
2018-07-13T16:55:21.038Z,18.20
2018-07-13T16:58:24.515Z,19.40
2018-07-13T16:59:56.075Z,18.30
2018-07-13T17:01:27.655Z,19.70
2018-07-13T17:02:58.968Z,18.90
2018-07-13T17:06:02.827Z,18.50
2018-07-13T17:07:33.688Z,20.60
2018-07-13T17:09:05.276Z,20.10
2018-07-13T17:10:36.857Z,19.20
2018-07-13T17:12:08.524Z,19.20
2018-07-13T17:15:11.631Z,17.70
2018-07-13T17:16:43.190Z,18.70
2018-07-13T17:18:14.874Z,20.50
2018-07-13T17:19:46.357Z,20.00
2018-07-13T17:21:17.944Z,18.50
2018-07-13T17:22:49.561Z,19.50
2018-07-13T17:24:21.107Z,18.40
2018-07-13T17:25:52.692Z,19.60
2018-07-13T17:27:24.275Z,19.20
2018-07-13T17:28:55.858Z,21.20
2018-07-13T17:30:27.451Z,18.60
2018-07-13T17:31:59.028Z,19.20
2018-07-13T17:33:30.609Z,18.50
2018-07-13T17:35:02.522Z,18.00
2018-07-13T17:36:33.876Z,17.80
2018-07-13T17:38:05.359Z,20.30
2018-07-13T17:39:37.149Z,21.30
2018-07-13T17:41:08.672Z,19.90
2018-07-13T17:42:40.351Z,19.80
2018-07-13T17:44:11.697Z,18.80
2018-07-13T17:45:43.311Z,18.50
2018-07-13T17:47:14.862Z,20.00
2018-07-13T17:48:46.460Z,20.20
2018-07-13T17:50:18.551Z,21.00
2018-07-13T17:51:49.619Z,19.90
2018-07-13T17:53:21.195Z,21.10
2018-07-13T17:54:52.878Z,20.80
2018-07-13T17:56:24.361Z,21.30
2018-07-13T17:57:55.945Z,21.50
2018-07-13T17:59:27.540Z,23.20
2018-07-13T18:00:59.127Z,18.70
2018-07-13T18:02:30.694Z,20.30
2018-07-13T18:04:02.276Z,20.60
2018-07-13T18:05:34.383Z,18.80
2018-07-13T18:07:05.442Z,18.50
2018-07-13T18:08:37.025Z,21.00
2018-07-13T18:10:08.607Z,19.90
2018-07-13T18:11:40.197Z,19.50
2018-07-13T18:13:12.230Z,22.80
2018-07-13T18:14:43.406Z,21.10
2018-07-13T18:16:14.948Z,20.80
2018-07-13T18:19:18.103Z,20.10
2018-07-13T18:20:49.694Z,18.70
2018-07-13T18:22:21.269Z,20.80
2018-07-13T18:23:52.852Z,18.50
2018-07-13T18:25:24.445Z,23.30
2018-07-13T18:26:56.222Z,20.10
2018-07-13T18:28:27.599Z,18.60
2018-07-13T18:29:59.182Z,17.40
2018-07-13T18:31:31.636Z,16.70
2018-07-13T18:33:02.347Z,15.90
2018-07-13T18:34:33.940Z,17.00
2018-07-13T18:36:05.525Z,15.30
2018-07-13T18:37:37.094Z,16.60
2018-07-13T18:39:09.100Z,15.80
2018-07-13T18:40:40.294Z,15.40
2018-07-13T18:42:11.841Z,18.00
2018-07-13T18:43:43.423Z,15.40
2018-07-13T18:45:15.010Z,14.10
2018-07-13T18:46:46.788Z,15.20
2018-07-13T18:48:18.168Z,15.10
2018-07-13T18:49:49.852Z,16.30
2018-07-13T18:51:21.330Z,16.40
2018-07-13T18:52:52.913Z,17.30
2018-07-13T18:54:24.493Z,16.60
2018-07-13T18:55:56.084Z,17.00
2018-07-13T18:57:27.665Z,15.00
2018-07-13T18:58:59.235Z,18.00
2018-07-13T19:00:30.819Z,15.30
2018-07-13T19:02:02.397Z,16.10
2018-07-13T19:03:34.169Z,15.80
2018-07-13T19:05:05.556Z,16.50
2018-07-13T19:06:37.136Z,14.90
2018-07-13T19:08:08.816Z,17.20
2018-07-13T19:09:40.296Z,14.00
2018-07-13T19:11:11.875Z,15.30
2018-07-13T19:12:43.456Z,16.50
2018-07-13T19:14:15.036Z,15.50
2018-07-13T19:15:46.615Z,14.20
2018-07-13T19:17:18.196Z,17.60
2018-07-13T19:18:49.775Z,18.10
2018-07-13T19:20:21.360Z,14.10
2018-07-13T19:21:52.972Z,13.60
2018-07-13T19:23:24.538Z,16.80
2018-07-13T19:24:56.099Z,13.80
2018-07-13T19:26:27.778Z,15.70
2018-07-13T19:27:59.288Z,14.10
2018-07-13T19:29:30.860Z,14.30
2018-07-13T19:31:02.767Z,19.10
2018-07-13T19:32:34.000Z,16.50
2018-07-13T19:34:05.586Z,15.00
2018-07-13T19:35:37.157Z,13.60
2018-07-13T19:37:08.741Z,15.40
2018-07-13T19:38:40.405Z,17.10
2018-07-13T19:40:11.900Z,14.90
2018-07-13T19:41:43.480Z,16.90
2018-07-13T19:43:15.057Z,14.60
2018-07-13T19:46:18.621Z,15.00
2018-07-13T19:47:49.798Z,11.20
2018-07-13T19:49:21.375Z,13.90
2018-07-13T19:50:52.955Z,15.90
2018-07-13T19:52:24.736Z,15.50
2018-07-13T19:53:56.113Z,8.70
2018-07-13T19:55:27.692Z,10.60
2018-07-13T19:56:59.283Z,12.80
2018-07-13T19:58:30.850Z,13.90
2018-07-13T20:00:02.429Z,12.30
2018-07-13T20:01:34.011Z,11.10
2018-07-13T20:03:05.675Z,13.90
2018-07-13T20:04:37.328Z,11.60
2018-07-13T20:06:08.741Z,9.80
2018-07-13T20:07:40.317Z,12.10
2018-07-13T20:09:11.895Z,10.10
2018-07-13T20:10:43.475Z,15.10
2018-07-13T20:12:15.048Z,10.80
2018-07-13T20:13:46.624Z,13.80
2018-07-13T20:15:18.504Z,11.30
2018-07-13T20:16:49.877Z,16.10
2018-07-13T20:18:21.352Z,14.00
2018-07-13T20:22:56.483Z,9.80
2018-07-13T20:24:27.654Z,12.90
2018-07-13T20:25:59.229Z,10.40
2018-07-13T20:27:30.805Z,11.00
2018-07-13T20:29:02.379Z,8.90
2018-07-13T20:30:33.956Z,8.60
2018-07-13T20:32:05.529Z,8.20
2018-07-13T20:33:37.106Z,8.80
2018-07-13T20:35:08.679Z,14.10
2018-07-13T20:36:40.253Z,15.60
2018-07-13T20:38:11.827Z,13.60
2018-07-13T20:39:43.403Z,10.70
2018-07-13T20:41:15.080Z,9.50